sensor_id;sensor_type;location;lat;lon;timestamp;P1;durP1;ratioP1;P2;durP2;ratioP2
71759;SDS011;59919;48.112;16.280;2024-01-15T00:02:22;4.40;;;3.00;;
71759;SDS011;59919;48.112;16.280;2024-01-15T00:04:56;4.38;;;2.90;;
71759;SDS011;59919;48.112;16.280;2024-01-15T00:07:32;3.40;;;2.55;;
71759;SDS011;59919;48.112;16.280;2024-01-15T00:10:03;3.67;;;2.78;;
71759;SDS011;59919;48.112;16.280;2024-01-15T00:12:38;4.40;;;3.15;;
71759;SDS011;59919;48.112;16.280;2024-01-15T00:15:10;3.53;;;2.75;;
71759;SDS011;59919;48.112;16.280;2024-01-15T00:17:43;4.82;;;2.80;;
71759;SDS011;59919;48.112;16.280;2024-01-15T00:20:17;4.28;;;2.75;;
71759;SDS011;59919;48.112;16.280;2024-01-15T00:22:48;3.85;;;2.13;;
71759;SDS011;59919;48.112;16.280;2024-01-15T00:25:19;3.65;;;2.70;;
71759;SDS011;59919;48.112;16.280;2024-01-15T00:27:50;3.63;;;2.58;;
71759;SDS011;59919;48.112;16.280;2024-01-15T00:30:24;3.40;;;2.38;;
71759;SDS011;59919;48.112;16.280;2024-01-15T00:32:55;3.80;;;2.40;;
71759;SDS011;59919;48.112;16.280;2024-01-15T00:35:26;4.15;;;2.63;;
71759;SDS011;59919;48.112;16.280;2024-01-15T00:37:57;5.13;;;2.63;;
71759;SDS011;59919;48.112;16.280;2024-01-15T00:40:28;3.85;;;2.47;;
71759;SDS011;59919;48.112;16.280;2024-01-15T00:43:01;3.65;;;2.60;;
71759;SDS011;59919;48.112;16.280;2024-01-15T00:45:35;4.97;;;2.40;;
71759;SDS011;59919;48.112;16.280;2024-01-15T00:48:07;3.25;;;2.40;;
71759;SDS011;59919;48.112;16.280;2024-01-15T00:50:38;3.15;;;2.70;;
71759;SDS011;59919;48.112;16.280;2024-01-15T00:53:09;3.80;;;2.70;;
71759;SDS011;59919;48.112;16.280;2024-01-15T00:55:43;4.22;;;2.70;;
71759;SDS011;59919;48.112;16.280;2024-01-15T00:58:16;3.63;;;2.40;;
71759;SDS011;59919;48.112;16.280;2024-01-15T01:00:50;3.90;;;2.60;;
71759;SDS011;59919;48.112;16.280;2024-01-15T01:03:25;3.00;;;2.05;;
71759;SDS011;59919;48.112;16.280;2024-01-15T01:06:01;4.05;;;2.70;;
71759;SDS011;59919;48.112;16.280;2024-01-15T01:08:32;3.92;;;2.50;;
71759;SDS011;59919;48.112;16.280;2024-01-15T01:11:04;4.18;;;2.38;;
71759;SDS011;59919;48.112;16.280;2024-01-15T01:13:35;3.75;;;2.70;;
71759;SDS011;59919;48.112;16.280;2024-01-15T01:16:08;5.30;;;2.60;;
71759;SDS011;59919;48.112;16.280;2024-01-15T01:18:44;3.33;;;2.53;;
71759;SDS011;59919;48.112;16.280;2024-01-15T01:21:18;4.78;;;2.83;;
71759;SDS011;59919;48.112;16.280;2024-01-15T01:23:49;4.50;;;2.55;;
71759;SDS011;59919;48.112;16.280;2024-01-15T01:26:27;3.78;;;2.70;;
71759;SDS011;59919;48.112;16.280;2024-01-15T01:28:58;4.60;;;2.13;;
71759;SDS011;59919;48.112;16.280;2024-01-15T01:31:32;3.25;;;2.30;;
71759;SDS011;59919;48.112;16.280;2024-01-15T01:34:03;4.80;;;2.63;;
71759;SDS011;59919;48.112;16.280;2024-01-15T01:36:39;2.95;;;2.50;;
71759;SDS011;59919;48.112;16.280;2024-01-15T01:39:13;3.65;;;2.33;;
71759;SDS011;59919;48.112;16.280;2024-01-15T01:41:44;4.40;;;2.55;;
71759;SDS011;59919;48.112;16.280;2024-01-15T01:44:18;3.67;;;2.63;;
71759;SDS011;59919;48.112;16.280;2024-01-15T01:46:49;4.47;;;2.65;;
71759;SDS011;59919;48.112;16.280;2024-01-15T01:49:22;5.55;;;2.63;;
71759;SDS011;59919;48.112;16.280;2024-01-15T01:51:59;3.58;;;2.55;;
71759;SDS011;59919;48.112;16.280;2024-01-15T01:54:32;3.65;;;2.53;;
71759;SDS011;59919;48.112;16.280;2024-01-15T01:57:07;3.30;;;2.42;;
71759;SDS011;59919;48.112;16.280;2024-01-15T01:59:44;3.50;;;2.25;;
71759;SDS011;59919;48.112;16.280;2024-01-15T02:02:17;4.03;;;2.58;;
71759;SDS011;59919;48.112;16.280;2024-01-15T02:04:51;4.47;;;2.65;;
71759;SDS011;59919;48.112;16.280;2024-01-15T02:07:27;3.03;;;2.42;;
71759;SDS011;59919;48.112;16.280;2024-01-15T02:09:58;4.75;;;2.58;;
71759;SDS011;59919;48.112;16.280;2024-01-15T02:12:32;3.58;;;2.40;;
71759;SDS011;59919;48.112;16.280;2024-01-15T02:15:05;4.40;;;2.53;;
71759;SDS011;59919;48.112;16.280;2024-01-15T02:17:55;2.38;;;2.08;;
71759;SDS011;59919;48.112;16.280;2024-01-15T02:20:33;3.65;;;2.30;;
71759;SDS011;59919;48.112;16.280;2024-01-15T02:23:14;4.32;;;2.72;;
71759;SDS011;59919;48.112;16.280;2024-01-15T02:25:46;6.00;;;2.45;;
71759;SDS011;59919;48.112;16.280;2024-01-15T02:28:20;4.03;;;2.22;;
71759;SDS011;59919;48.112;16.280;2024-01-15T02:30:51;4.75;;;2.35;;
71759;SDS011;59919;48.112;16.280;2024-01-15T02:33:25;4.53;;;2.20;;
71759;SDS011;59919;48.112;16.280;2024-01-15T02:35:57;3.47;;;2.28;;
71759;SDS011;59919;48.112;16.280;2024-01-15T02:38:36;3.55;;;2.40;;
71759;SDS011;59919;48.112;16.280;2024-01-15T02:41:12;4.60;;;2.33;;
71759;SDS011;59919;48.112;16.280;2024-01-15T02:43:46;2.70;;;2.17;;
71759;SDS011;59919;48.112;16.280;2024-01-15T02:46:25;3.67;;;2.15;;
71759;SDS011;59919;48.112;16.280;2024-01-15T02:49:00;3.35;;;2.35;;
71759;SDS011;59919;48.112;16.280;2024-01-15T02:51:32;5.32;;;2.55;;
71759;SDS011;59919;48.112;16.280;2024-01-15T02:54:05;3.10;;;2.10;;
71759;SDS011;59919;48.112;16.280;2024-01-15T02:56:38;3.75;;;2.47;;
71759;SDS011;59919;48.112;16.280;2024-01-15T02:59:09;3.13;;;2.30;;
71759;SDS011;59919;48.112;16.280;2024-01-15T03:02:01;3.42;;;2.40;;
71759;SDS011;59919;48.112;16.280;2024-01-15T03:04:32;3.15;;;2.33;;
71759;SDS011;59919;48.112;16.280;2024-01-15T03:07:05;4.72;;;2.40;;
71759;SDS011;59919;48.112;16.280;2024-01-15T03:09:36;4.45;;;2.53;;
71759;SDS011;59919;48.112;16.280;2024-01-15T03:12:08;2.60;;;2.13;;
71759;SDS011;59919;48.112;16.280;2024-01-15T03:14:41;4.40;;;2.50;;
71759;SDS011;59919;48.112;16.280;2024-01-15T03:17:12;3.58;;;2.40;;
71759;SDS011;59919;48.112;16.280;2024-01-15T03:19:46;2.88;;;2.20;;
71759;SDS011;59919;48.112;16.280;2024-01-15T03:22:22;3.78;;;2.25;;
71759;SDS011;59919;48.112;16.280;2024-01-15T03:24:58;4.75;;;2.13;;
71759;SDS011;59919;48.112;16.280;2024-01-15T03:27:31;2.85;;;1.95;;
71759;SDS011;59919;48.112;16.280;2024-01-15T03:30:02;3.97;;;2.22;;
71759;SDS011;59919;48.112;16.280;2024-01-15T03:32:36;2.65;;;2.15;;
71759;SDS011;59919;48.112;16.280;2024-01-15T03:35:07;2.83;;;2.10;;
71759;SDS011;59919;48.112;16.280;2024-01-15T03:37:39;2.80;;;1.85;;
71759;SDS011;59919;48.112;16.280;2024-01-15T03:40:10;2.70;;;2.05;;
71759;SDS011;59919;48.112;16.280;2024-01-15T03:42:45;2.50;;;1.83;;
71759;SDS011;59919;48.112;16.280;2024-01-15T03:45:19;4.30;;;2.30;;
71759;SDS011;59919;48.112;16.280;2024-01-15T03:47:50;3.08;;;2.25;;
71759;SDS011;59919;48.112;16.280;2024-01-15T03:50:38;3.85;;;2.25;;
71759;SDS011;59919;48.112;16.280;2024-01-15T03:53:27;4.47;;;2.35;;
71759;SDS011;59919;48.112;16.280;2024-01-15T03:56:00;4.05;;;2.25;;
71759;SDS011;59919;48.112;16.280;2024-01-15T03:58:34;3.90;;;2.13;;
71759;SDS011;59919;48.112;16.280;2024-01-15T04:01:13;3.42;;;2.42;;
71759;SDS011;59919;48.112;16.280;2024-01-15T04:03:46;3.35;;;2.30;;
71759;SDS011;59919;48.112;16.280;2024-01-15T04:06:18;3.05;;;2.33;;
71759;SDS011;59919;48.112;16.280;2024-01-15T04:08:49;3.40;;;2.20;;
71759;SDS011;59919;48.112;16.280;2024-01-15T04:11:20;2.80;;;2.13;;
71759;SDS011;59919;48.112;16.280;2024-01-15T04:13:54;2.65;;;2.05;;
71759;SDS011;59919;48.112;16.280;2024-01-15T04:16:26;2.50;;;2.00;;
71759;SDS011;59919;48.112;16.280;2024-01-15T04:18:59;2.53;;;2.00;;
71759;SDS011;59919;48.112;16.280;2024-01-15T04:21:34;4.45;;;2.50;;
71759;SDS011;59919;48.112;16.280;2024-01-15T04:24:09;3.00;;;2.10;;
71759;SDS011;59919;48.112;16.280;2024-01-15T04:26:42;3.80;;;2.35;;
71759;SDS011;59919;48.112;16.280;2024-01-15T04:29:14;3.70;;;2.38;;
71759;SDS011;59919;48.112;16.280;2024-01-15T04:31:47;2.95;;;2.00;;
71759;SDS011;59919;48.112;16.280;2024-01-15T04:34:18;2.50;;;2.00;;
71759;SDS011;59919;48.112;16.280;2024-01-15T04:36:55;2.90;;;2.17;;
71759;SDS011;59919;48.112;16.280;2024-01-15T04:39:26;6.38;;;2.10;;
71759;SDS011;59919;48.112;16.280;2024-01-15T04:41:59;3.50;;;2.35;;
71759;SDS011;59919;48.112;16.280;2024-01-15T04:44:32;2.40;;;1.92;;
71759;SDS011;59919;48.112;16.280;2024-01-15T04:47:09;3.45;;;2.20;;
71759;SDS011;59919;48.112;16.280;2024-01-15T04:49:43;3.05;;;1.83;;
71759;SDS011;59919;48.112;16.280;2024-01-15T04:52:14;3.58;;;2.00;;
71759;SDS011;59919;48.112;16.280;2024-01-15T04:54:57;2.67;;;1.80;;
71759;SDS011;59919;48.112;16.280;2024-01-15T04:57:28;3.53;;;2.10;;
71759;SDS011;59919;48.112;16.280;2024-01-15T05:00:01;3.60;;;2.03;;
71759;SDS011;59919;48.112;16.280;2024-01-15T05:02:35;4.30;;;2.20;;
71759;SDS011;59919;48.112;16.280;2024-01-15T05:05:12;2.13;;;1.83;;
71759;SDS011;59919;48.112;16.280;2024-01-15T05:07:43;2.08;;;1.80;;
71759;SDS011;59919;48.112;16.280;2024-01-15T05:10:14;2.72;;;1.92;;
71759;SDS011;59919;48.112;16.280;2024-01-15T05:12:48;3.05;;;2.20;;
71759;SDS011;59919;48.112;16.280;2024-01-15T05:15:24;2.67;;;2.08;;
71759;SDS011;59919;48.112;16.280;2024-01-15T05:18:00;3.45;;;1.70;;
71759;SDS011;59919;48.112;16.280;2024-01-15T05:20:31;4.07;;;1.90;;
71759;SDS011;59919;48.112;16.280;2024-01-15T05:23:05;5.05;;;1.83;;
71759;SDS011;59919;48.112;16.280;2024-01-15T05:25:37;4.53;;;2.20;;
71759;SDS011;59919;48.112;16.280;2024-01-15T05:28:10;6.97;;;2.13;;
71759;SDS011;59919;48.112;16.280;2024-01-15T05:30:44;3.75;;;2.00;;
71759;SDS011;59919;48.112;16.280;2024-01-15T05:33:17;3.03;;;1.80;;
71759;SDS011;59919;48.112;16.280;2024-01-15T05:35:53;4.53;;;2.13;;
71759;SDS011;59919;48.112;16.280;2024-01-15T05:38:24;3.90;;;2.30;;
71759;SDS011;59919;48.112;16.280;2024-01-15T05:40:58;2.92;;;1.92;;
71759;SDS011;59919;48.112;16.280;2024-01-15T05:43:29;4.75;;;2.13;;
71759;SDS011;59919;48.112;16.280;2024-01-15T05:46:02;4.43;;;1.92;;
71759;SDS011;59919;48.112;16.280;2024-01-15T05:48:34;6.75;;;2.22;;
71759;SDS011;59919;48.112;16.280;2024-01-15T05:51:05;5.63;;;2.00;;
71759;SDS011;59919;48.112;16.280;2024-01-15T05:53:36;4.78;;;2.22;;
71759;SDS011;59919;48.112;16.280;2024-01-15T05:58:46;6.22;;;2.10;;
71759;SDS011;59919;48.112;16.280;2024-01-15T06:01:17;5.32;;;2.17;;
71759;SDS011;59919;48.112;16.280;2024-01-15T06:03:48;3.65;;;2.20;;
71759;SDS011;59919;48.112;16.280;2024-01-15T06:06:20;6.78;;;1.90;;
71759;SDS011;59919;48.112;16.280;2024-01-15T06:08:51;3.88;;;2.03;;
71759;SDS011;59919;48.112;16.280;2024-01-15T06:11:29;5.00;;;2.30;;
71759;SDS011;59919;48.112;16.280;2024-01-15T06:14:01;10.07;;;2.30;;
71759;SDS011;59919;48.112;16.280;2024-01-15T06:16:34;9.43;;;2.40;;
71759;SDS011;59919;48.112;16.280;2024-01-15T06:19:14;7.72;;;2.67;;
71759;SDS011;59919;48.112;16.280;2024-01-15T06:21:45;4.50;;;2.10;;
71759;SDS011;59919;48.112;16.280;2024-01-15T06:24:21;4.60;;;2.10;;
71759;SDS011;59919;48.112;16.280;2024-01-15T06:26:56;5.97;;;1.90;;
71759;SDS011;59919;48.112;16.280;2024-01-15T06:29:30;5.53;;;2.03;;
71759;SDS011;59919;48.112;16.280;2024-01-15T06:32:06;5.18;;;2.20;;
71759;SDS011;59919;48.112;16.280;2024-01-15T06:34:39;5.43;;;2.50;;
71759;SDS011;59919;48.112;16.280;2024-01-15T06:37:12;4.70;;;2.30;;
71759;SDS011;59919;48.112;16.280;2024-01-15T06:39:48;3.25;;;2.05;;
71759;SDS011;59919;48.112;16.280;2024-01-15T06:42:21;3.72;;;2.13;;
71759;SDS011;59919;48.112;16.280;2024-01-15T06:44:54;2.95;;;1.90;;
71759;SDS011;59919;48.112;16.280;2024-01-15T06:47:25;8.35;;;2.15;;
71759;SDS011;59919;48.112;16.280;2024-01-15T06:50:05;2.65;;;1.80;;
71759;SDS011;59919;48.112;16.280;2024-01-15T06:52:37;6.70;;;1.98;;
71759;SDS011;59919;48.112;16.280;2024-01-15T06:55:08;4.18;;;2.00;;
71759;SDS011;59919;48.112;16.280;2024-01-15T06:57:45;3.00;;;1.90;;
71759;SDS011;59919;48.112;16.280;2024-01-15T07:00:18;5.35;;;2.20;;
71759;SDS011;59919;48.112;16.280;2024-01-15T07:02:50;6.10;;;1.90;;
71759;SDS011;59919;48.112;16.280;2024-01-15T07:05:21;4.18;;;1.98;;
71759;SDS011;59919;48.112;16.280;2024-01-15T07:07:54;3.15;;;1.70;;
71759;SDS011;59919;48.112;16.280;2024-01-15T07:10:36;3.78;;;2.00;;
71759;SDS011;59919;48.112;16.280;2024-01-15T07:13:09;2.78;;;1.95;;
71759;SDS011;59919;48.112;16.280;2024-01-15T07:15:43;6.97;;;1.90;;
71759;SDS011;59919;48.112;16.280;2024-01-15T07:18:15;3.10;;;2.00;;
71759;SDS011;59919;48.112;16.280;2024-01-15T07:20:46;5.53;;;1.95;;
71759;SDS011;59919;48.112;16.280;2024-01-15T07:23:19;5.55;;;2.55;;
71759;SDS011;59919;48.112;16.280;2024-01-15T07:25:59;4.70;;;1.95;;
71759;SDS011;59919;48.112;16.280;2024-01-15T07:28:33;3.08;;;2.00;;
71759;SDS011;59919;48.112;16.280;2024-01-15T07:31:04;3.33;;;1.80;;
71759;SDS011;59919;48.112;16.280;2024-01-15T07:33:40;2.17;;;1.60;;
71759;SDS011;59919;48.112;16.280;2024-01-15T07:36:14;2.33;;;1.67;;
71759;SDS011;59919;48.112;16.280;2024-01-15T07:38:50;2.95;;;1.90;;
71759;SDS011;59919;48.112;16.280;2024-01-15T07:41:24;3.08;;;1.85;;
71759;SDS011;59919;48.112;16.280;2024-01-15T07:43:59;2.30;;;1.60;;
71759;SDS011;59919;48.112;16.280;2024-01-15T07:46:30;4.47;;;1.90;;
71759;SDS011;59919;48.112;16.280;2024-01-15T07:49:02;3.47;;;1.70;;
71759;SDS011;59919;48.112;16.280;2024-01-15T07:51:36;3.33;;;1.60;;
71759;SDS011;59919;48.112;16.280;2024-01-15T07:54:07;3.22;;;1.98;;
71759;SDS011;59919;48.112;16.280;2024-01-15T07:59:28;2.92;;;1.63;;
71759;SDS011;59919;48.112;16.280;2024-01-15T08:02:00;2.15;;;1.80;;
71759;SDS011;59919;48.112;16.280;2024-01-15T08:04:32;2.28;;;1.50;;
71759;SDS011;59919;48.112;16.280;2024-01-15T08:07:07;2.45;;;1.58;;
71759;SDS011;59919;48.112;16.280;2024-01-15T08:09:38;2.05;;;1.50;;
71759;SDS011;59919;48.112;16.280;2024-01-15T08:12:17;2.25;;;1.90;;
71759;SDS011;59919;48.112;16.280;2024-01-15T08:14:48;3.42;;;1.45;;
71759;SDS011;59919;48.112;16.280;2024-01-15T08:17:21;3.35;;;1.70;;
71759;SDS011;59919;48.112;16.280;2024-01-15T08:22:32;3.75;;;1.58;;
71759;SDS011;59919;48.112;16.280;2024-01-15T08:25:08;2.20;;;1.47;;
71759;SDS011;59919;48.112;16.280;2024-01-15T08:27:46;2.47;;;1.75;;
71759;SDS011;59919;48.112;16.280;2024-01-15T08:30:18;2.92;;;1.58;;
71759;SDS011;59919;48.112;16.280;2024-01-15T08:32:58;2.70;;;1.65;;
71759;SDS011;59919;48.112;16.280;2024-01-15T08:35:29;2.53;;;1.58;;
71759;SDS011;59919;48.112;16.280;2024-01-15T08:38:01;2.58;;;1.65;;
71759;SDS011;59919;48.112;16.280;2024-01-15T08:40:34;2.30;;;1.33;;
71759;SDS011;59919;48.112;16.280;2024-01-15T08:43:05;2.05;;;1.52;;
71759;SDS011;59919;48.112;16.280;2024-01-15T08:45:38;1.77;;;1.40;;
71759;SDS011;59919;48.112;16.280;2024-01-15T08:48:12;2.17;;;1.63;;
71759;SDS011;59919;48.112;16.280;2024-01-15T08:50:43;2.38;;;1.80;;
71759;SDS011;59919;48.112;16.280;2024-01-15T08:53:18;1.88;;;1.67;;
71759;SDS011;59919;48.112;16.280;2024-01-15T08:55:56;2.35;;;1.30;;
71759;SDS011;59919;48.112;16.280;2024-01-15T08:58:27;1.75;;;1.27;;
71759;SDS011;59919;48.112;16.280;2024-01-15T09:01:01;1.95;;;1.52;;
71759;SDS011;59919;48.112;16.280;2024-01-15T09:03:37;1.40;;;1.30;;
71759;SDS011;59919;48.112;16.280;2024-01-15T09:06:14;1.67;;;1.25;;
71759;SDS011;59919;48.112;16.280;2024-01-15T09:08:49;2.75;;;1.50;;
71759;SDS011;59919;48.112;16.280;2024-01-15T09:11:20;1.40;;;1.30;;
71759;SDS011;59919;48.112;16.280;2024-01-15T09:13:54;1.95;;;1.20;;
71759;SDS011;59919;48.112;16.280;2024-01-15T09:16:27;1.80;;;1.30;;
71759;SDS011;59919;48.112;16.280;2024-01-15T09:18:59;2.70;;;1.50;;
71759;SDS011;59919;48.112;16.280;2024-01-15T09:21:37;1.77;;;1.23;;
71759;SDS011;59919;48.112;16.280;2024-01-15T09:24:09;1.50;;;1.33;;
71759;SDS011;59919;48.112;16.280;2024-01-15T09:26:43;1.55;;;1.45;;
71759;SDS011;59919;48.112;16.280;2024-01-15T09:29:16;1.92;;;1.48;;
71759;SDS011;59919;48.112;16.280;2024-01-15T09:31:50;1.42;;;1.30;;
71759;SDS011;59919;48.112;16.280;2024-01-15T09:34:21;2.55;;;1.40;;
71759;SDS011;59919;48.112;16.280;2024-01-15T09:36:58;2.15;;;1.20;;
71759;SDS011;59919;48.112;16.280;2024-01-15T09:39:32;1.67;;;1.23;;
71759;SDS011;59919;48.112;16.280;2024-01-15T09:42:08;2.05;;;1.30;;
71759;SDS011;59919;48.112;16.280;2024-01-15T09:44:44;2.70;;;1.45;;
71759;SDS011;59919;48.112;16.280;2024-01-15T09:47:16;2.00;;;1.40;;
71759;SDS011;59919;48.112;16.280;2024-01-15T09:49:52;1.63;;;1.20;;
71759;SDS011;59919;48.112;16.280;2024-01-15T09:55:22;1.75;;;1.27;;
71759;SDS011;59919;48.112;16.280;2024-01-15T09:57:57;3.03;;;1.40;;
71759;SDS011;59919;48.112;16.280;2024-01-15T10:00:33;1.67;;;1.30;;
71759;SDS011;59919;48.112;16.280;2024-01-15T10:03:09;1.67;;;1.40;;
71759;SDS011;59919;48.112;16.280;2024-01-15T10:05:44;1.90;;;1.20;;
71759;SDS011;59919;48.112;16.280;2024-01-15T10:08:21;1.77;;;1.40;;
71759;SDS011;59919;48.112;16.280;2024-01-15T10:10:58;2.95;;;1.38;;
71759;SDS011;59919;48.112;16.280;2024-01-15T10:13:30;1.83;;;1.33;;
71759;SDS011;59919;48.112;16.280;2024-01-15T10:16:04;1.27;;;1.13;;
71759;SDS011;59919;48.112;16.280;2024-01-15T10:18:39;1.90;;;1.38;;
71759;SDS011;59919;48.112;16.280;2024-01-15T10:21:13;1.52;;;1.27;;
71759;SDS011;59919;48.112;16.280;2024-01-15T10:23:49;1.90;;;1.27;;
71759;SDS011;59919;48.112;16.280;2024-01-15T10:26:28;1.55;;;1.20;;
71759;SDS011;59919;48.112;16.280;2024-01-15T10:29:07;1.67;;;1.30;;
71759;SDS011;59919;48.112;16.280;2024-01-15T10:31:41;1.35;;;1.08;;
71759;SDS011;59919;48.112;16.280;2024-01-15T10:34:14;1.30;;;1.10;;
71759;SDS011;59919;48.112;16.280;2024-01-15T10:36:50;2.15;;;1.13;;
71759;SDS011;59919;48.112;16.280;2024-01-15T10:39:26;1.85;;;1.48;;
71759;SDS011;59919;48.112;16.280;2024-01-15T10:41:57;1.83;;;1.10;;
71759;SDS011;59919;48.112;16.280;2024-01-15T10:44:30;1.15;;;1.02;;
71759;SDS011;59919;48.112;16.280;2024-01-15T10:47:01;1.55;;;1.20;;
71759;SDS011;59919;48.112;16.280;2024-01-15T10:49:33;1.60;;;1.50;;
71759;SDS011;59919;48.112;16.280;2024-01-15T10:52:06;1.58;;;1.10;;
71759;SDS011;59919;48.112;16.280;2024-01-15T10:54:40;1.13;;;1.02;;
71759;SDS011;59919;48.112;16.280;2024-01-15T10:57:13;1.45;;;1.20;;
71759;SDS011;59919;48.112;16.280;2024-01-15T10:59:51;1.95;;;1.35;;
71759;SDS011;59919;48.112;16.280;2024-01-15T11:02:24;1.10;;;0.88;;
71759;SDS011;59919;48.112;16.280;2024-01-15T11:04:58;1.50;;;1.20;;
71759;SDS011;59919;48.112;16.280;2024-01-15T11:07:32;2.33;;;0.85;;
71759;SDS011;59919;48.112;16.280;2024-01-15T11:10:04;1.70;;;1.25;;
71759;SDS011;59919;48.112;16.280;2024-01-15T11:12:41;1.40;;;1.15;;
71759;SDS011;59919;48.112;16.280;2024-01-15T11:15:16;1.73;;;1.17;;
71759;SDS011;59919;48.112;16.280;2024-01-15T11:17:58;1.95;;;1.10;;
71759;SDS011;59919;48.112;16.280;2024-01-15T11:20:36;1.90;;;1.13;;
71759;SDS011;59919;48.112;16.280;2024-01-15T11:23:07;1.15;;;1.02;;
71759;SDS011;59919;48.112;16.280;2024-01-15T11:25:40;1.33;;;1.10;;
71759;SDS011;59919;48.112;16.280;2024-01-15T11:28:11;1.52;;;1.10;;
71759;SDS011;59919;48.112;16.280;2024-01-15T11:34:12;1.45;;;1.10;;
71759;SDS011;59919;48.112;16.280;2024-01-15T11:42:03;1.20;;;1.10;;
71759;SDS011;59919;48.112;16.280;2024-01-15T11:44:40;1.92;;;1.20;;
71759;SDS011;59919;48.112;16.280;2024-01-15T11:47:13;2.00;;;1.30;;
71759;SDS011;59919;48.112;16.280;2024-01-15T11:50:00;1.50;;;1.20;;
71759;SDS011;59919;48.112;16.280;2024-01-15T11:52:37;1.30;;;1.05;;
71759;SDS011;59919;48.112;16.280;2024-01-15T11:58:15;1.50;;;1.27;;
71759;SDS011;59919;48.112;16.280;2024-01-15T12:00:47;1.50;;;0.95;;
71759;SDS011;59919;48.112;16.280;2024-01-15T12:03:25;1.48;;;0.98;;
71759;SDS011;59919;48.112;16.280;2024-01-15T12:06:00;2.00;;;0.95;;
71759;SDS011;59919;48.112;16.280;2024-01-15T12:08:35;1.40;;;1.10;;
71759;SDS011;59919;48.112;16.280;2024-01-15T12:11:07;1.23;;;1.00;;
71759;SDS011;59919;48.112;16.280;2024-01-15T12:13:46;1.38;;;1.27;;
71759;SDS011;59919;48.112;16.280;2024-01-15T12:16:24;1.85;;;1.15;;
71759;SDS011;59919;48.112;16.280;2024-01-15T12:18:55;1.65;;;1.30;;
71759;SDS011;59919;48.112;16.280;2024-01-15T12:21:26;1.17;;;0.90;;
71759;SDS011;59919;48.112;16.280;2024-01-15T12:24:02;1.88;;;1.20;;
71759;SDS011;59919;48.112;16.280;2024-01-15T12:26:42;1.15;;;0.90;;
71759;SDS011;59919;48.112;16.280;2024-01-15T12:29:13;1.10;;;1.00;;
71759;SDS011;59919;48.112;16.280;2024-01-15T12:31:46;1.13;;;1.00;;
71759;SDS011;59919;48.112;16.280;2024-01-15T12:34:21;1.10;;;0.88;;
71759;SDS011;59919;48.112;16.280;2024-01-15T12:36:52;1.50;;;1.23;;
71759;SDS011;59919;48.112;16.280;2024-01-15T12:39:25;1.17;;;0.95;;
71759;SDS011;59919;48.112;16.280;2024-01-15T12:42:00;1.20;;;1.00;;
71759;SDS011;59919;48.112;16.280;2024-01-15T12:44:36;1.00;;;0.85;;
71759;SDS011;59919;48.112;16.280;2024-01-15T12:47:10;1.23;;;1.13;;
71759;SDS011;59919;48.112;16.280;2024-01-15T12:49:48;1.27;;;1.10;;
71759;SDS011;59919;48.112;16.280;2024-01-15T12:52:28;1.20;;;0.80;;
71759;SDS011;59919;48.112;16.280;2024-01-15T12:55:07;1.35;;;1.00;;
71759;SDS011;59919;48.112;16.280;2024-01-15T12:57:42;1.05;;;0.95;;
71759;SDS011;59919;48.112;16.280;2024-01-15T13:00:16;1.30;;;1.00;;
71759;SDS011;59919;48.112;16.280;2024-01-15T13:02:50;1.35;;;1.00;;
71759;SDS011;59919;48.112;16.280;2024-01-15T13:05:21;1.08;;;0.98;;
71759;SDS011;59919;48.112;16.280;2024-01-15T13:07:54;1.20;;;1.10;;
71759;SDS011;59919;48.112;16.280;2024-01-15T13:10:28;1.20;;;0.90;;
71759;SDS011;59919;48.112;16.280;2024-01-15T13:13:00;1.05;;;0.93;;
71759;SDS011;59919;48.112;16.280;2024-01-15T13:15:32;1.17;;;0.85;;
71759;SDS011;59919;48.112;16.280;2024-01-15T13:18:08;1.20;;;1.08;;
71759;SDS011;59919;48.112;16.280;2024-01-15T13:20:45;0.77;;;0.77;;
71759;SDS011;59919;48.112;16.280;2024-01-15T13:23:19;1.48;;;1.08;;
71759;SDS011;59919;48.112;16.280;2024-01-15T13:25:51;1.00;;;0.90;;
71759;SDS011;59919;48.112;16.280;2024-01-15T13:28:28;1.30;;;1.00;;
71759;SDS011;59919;48.112;16.280;2024-01-15T13:30:59;1.42;;;1.10;;
71759;SDS011;59919;48.112;16.280;2024-01-15T13:33:42;1.00;;;0.90;;
71759;SDS011;59919;48.112;16.280;2024-01-15T13:36:18;1.02;;;0.82;;
71759;SDS011;59919;48.112;16.280;2024-01-15T13:38:52;2.33;;;1.10;;
71759;SDS011;59919;48.112;16.280;2024-01-15T13:41:29;1.00;;;0.90;;
71759;SDS011;59919;48.112;16.280;2024-01-15T13:44:00;1.48;;;1.00;;
71759;SDS011;59919;48.112;16.280;2024-01-15T13:46:31;0.88;;;0.80;;
71759;SDS011;59919;48.112;16.280;2024-01-15T13:49:06;0.80;;;0.60;;
71759;SDS011;59919;48.112;16.280;2024-01-15T13:51:40;1.52;;;0.82;;
71759;SDS011;59919;48.112;16.280;2024-01-15T13:54:11;1.15;;;0.90;;
71759;SDS011;59919;48.112;16.280;2024-01-15T13:56:44;1.02;;;0.90;;
71759;SDS011;59919;48.112;16.280;2024-01-15T13:59:17;0.88;;;0.80;;
71759;SDS011;59919;48.112;16.280;2024-01-15T14:01:54;0.90;;;0.80;;
71759;SDS011;59919;48.112;16.280;2024-01-15T14:04:31;1.30;;;0.90;;
71759;SDS011;59919;48.112;16.280;2024-01-15T14:07:05;1.02;;;0.77;;
71759;SDS011;59919;48.112;16.280;2024-01-15T14:09:36;1.00;;;0.90;;
71759;SDS011;59919;48.112;16.280;2024-01-15T14:12:10;0.95;;;0.80;;
71759;SDS011;59919;48.112;16.280;2024-01-15T14:14:44;0.93;;;0.90;;
71759;SDS011;59919;48.112;16.280;2024-01-15T14:17:15;1.05;;;0.75;;
71759;SDS011;59919;48.112;16.280;2024-01-15T14:19:49;1.00;;;0.90;;
71759;SDS011;59919;48.112;16.280;2024-01-15T14:22:22;1.23;;;0.80;;
71759;SDS011;59919;48.112;16.280;2024-01-15T14:24:53;1.10;;;1.00;;
71759;SDS011;59919;48.112;16.280;2024-01-15T14:27:31;0.85;;;0.85;;
71759;SDS011;59919;48.112;16.280;2024-01-15T14:30:07;0.98;;;0.70;;
71759;SDS011;59919;48.112;16.280;2024-01-15T14:32:41;1.20;;;0.85;;
71759;SDS011;59919;48.112;16.280;2024-01-15T14:35:18;1.13;;;0.90;;
71759;SDS011;59919;48.112;16.280;2024-01-15T14:37:49;1.35;;;0.75;;
71759;SDS011;59919;48.112;16.280;2024-01-15T14:40:20;0.80;;;0.75;;
71759;SDS011;59919;48.112;16.280;2024-01-15T14:42:51;1.15;;;0.93;;
71759;SDS011;59919;48.112;16.280;2024-01-15T14:45:23;1.10;;;0.90;;
71759;SDS011;59919;48.112;16.280;2024-01-15T14:47:54;0.82;;;0.70;;
71759;SDS011;59919;48.112;16.280;2024-01-15T14:50:28;1.02;;;0.85;;
71759;SDS011;59919;48.112;16.280;2024-01-15T14:53:00;1.13;;;0.73;;
71759;SDS011;59919;48.112;16.280;2024-01-15T14:55:32;1.95;;;0.80;;
71759;SDS011;59919;48.112;16.280;2024-01-15T14:58:03;1.00;;;0.90;;
71759;SDS011;59919;48.112;16.280;2024-01-15T15:00:36;0.90;;;0.75;;
71759;SDS011;59919;48.112;16.280;2024-01-15T15:03:08;0.98;;;0.88;;
71759;SDS011;59919;48.112;16.280;2024-01-15T15:05:41;1.75;;;0.88;;
71759;SDS011;59919;48.112;16.280;2024-01-15T15:08:12;1.85;;;0.90;;
71759;SDS011;59919;48.112;16.280;2024-01-15T15:10:43;0.73;;;0.68;;
71759;SDS011;59919;48.112;16.280;2024-01-15T15:13:19;1.85;;;0.80;;
71759;SDS011;59919;48.112;16.280;2024-01-15T15:15:50;0.80;;;0.70;;
71759;SDS011;59919;48.112;16.280;2024-01-15T15:18:24;1.30;;;0.80;;
71759;SDS011;59919;48.112;16.280;2024-01-15T15:20:57;0.70;;;0.60;;
71759;SDS011;59919;48.112;16.280;2024-01-15T15:23:33;1.42;;;0.90;;
71759;SDS011;59919;48.112;16.280;2024-01-15T15:26:09;0.90;;;0.65;;
71759;SDS011;59919;48.112;16.280;2024-01-15T15:28:45;0.88;;;0.70;;
71759;SDS011;59919;48.112;16.280;2024-01-15T15:31:18;0.70;;;0.70;;
71759;SDS011;59919;48.112;16.280;2024-01-15T15:33:52;0.80;;;0.70;;
71759;SDS011;59919;48.112;16.280;2024-01-15T15:36:28;0.70;;;0.57;;